Tiempo atmosférico en la estación meteorológica de Jaraicejo, Cáceres (510 m.)



Fecha
DESCASC
Temp. máxima en grados centígrados (hora)
DESCASC
Temp. mínima en grados centígrados (hora)
DESCASC
Temp. media en grados centígrados
DESCASC
Racha de viento máxima en m/sg (hora)
DESCASC
Velocidad máxima media en intervalos de 10 minutos(hora)
DESCASC
Precipitaciones diarias en mm
DESCASC
Precipitaciones de 00:00 a 06:00 en mm
DESCASC
Precipitaciones de 06:00 a 12:00 en mm
DESCASC
Precipitaciones de 12:00 a 18:00 en mm
DESCASC
Precipitaciones de 18:00 a 24:00 en mm
DESCASC
18-08-2019 34.1 (16:50) 17.8 (07:50) 25.9 9.44 (15:40) 5.28 (16:20) 0 0 0 0 0
17-08-2019 37.7 (17:10) 20.5 (07:50) 29.1 11.67 (17:50) 6.11 (17:20) 0 0 0 0 0
16-08-2019 37.7 (17:10) 21.6 (07:50) 29.7 8.89 (16:40) 5.28 (16:50) 0 0 0 0 0
15-08-2019 37.2 (18:20) 20.1 (00:00) 28.7 7.78 (15:00) 4.72 (23:50) 0 0 0 0 0
14-08-2019 35.1 (17:20) 18.1 (00:00) 26.6 7.22 (18:10) 5 (08:10) 0 0 0 0 0
13-08-2019 32.5 (18:40) 18.1 (00:00) 25.3 11.94 (08:10) 9.44 (08:10) 0 0 0 0 0
12-08-2019 29 (18:30) 12 (00:00) 20.5 11.11 (00:40) 5 (00:40) 0 0 0 0 0
11-08-2019 27.9 (15:20) 14.8 (00:00) 21.3 11.39 (17:10) 5.28 (18:10) 0 0 0 0 0
10-08-2019 31.5 (18:00) 14.3 (00:00) 22.9 6.67 (17:00) 3.61 (15:30) 0 0 0 0 0
09-08-2019 27.3 (14:00) 16.5 (00:00) 21.9 11.11 (14:10) 6.67 (12:30) 0.4 0 0 0.2 0.2
08-08-2019 33.5 (17:50) 18.7 (00:00) 26.1 13.06 (15:30) 7.22 (18:30) 0 0 0 0 0
07-08-2019 26.9 (19:00) 18.9 (00:00) 22.9 6.67 (11:20) 3.89 (11:20) 0 0 0 0 0
06-08-2019 35.1 (17:20) 18.5 (00:00) 26.8 10.28 (16:20) 6.39 (18:40) 0 0 0 0 0
05-08-2019 35.8 (17:00) 17.9 (00:00) 26.8 9.44 (14:30) 5.83 (15:40) 0 0 0 0 0
04-08-2019 35.6 (17:20) 18.9 (00:00) 27.2 9.44 (15:40) 4.72 (16:00) 0 0 0 0 0
03-08-2019 35.8 (18:30) 20 (00:00) 27.9 9.17 (15:40) 5.28 (18:00) 0 0 0 0 0
02-08-2019 35.5 (17:50) 17.3 (00:00) 26.4 7.22 (16:30) 3.61 (16:40) 0 0 0 0 0
01-08-2019 34.8 (17:40) 19.5 (00:00) 27.1 8.61 (16:40) 4.72 (18:10) 0 0 0 0 0
31-07-2019 35.5 (18:10) 19.4 (00:00) 27.4 11.67 (08:30) 9.17 (08:50) 0 0 0 0 0
30-07-2019 31.3 (18:00) 13.2 (00:00) 22.2 8.61 (00:30) 4.44 (00:50) 0 0 0 0 0
29-07-2019 31.7 (16:30) 15.5 (00:00) 23.6 10.83 (15:50) 5 (23:10) 0 0 0 0 0
28-07-2019 31.9 (18:40) 15.6 (00:00) 23.8 7.22 (15:10) 3.89 (17:10) 0 0 0 0 0
27-07-2019 28 (18:40) 14.4 (00:00) 21.2 9.17 (19:20) 5.28 (19:20) 0 0 0 0 0
26-07-2019 30.6 (17:10) 15.8 (00:00) 23.2 11.94 (14:00) 5.28 (15:00) 0 0 0 0 0
25-07-2019 35.3 (17:10) 22.4 (00:00) 28.8 10.83 (15:50) 6.39 (15:50) 0 0 0 0 0
24-07-2019 37.4 (17:40) 22.2 (00:00) 29.8 10 (15:20) 6.67 (01:50) 0 0 0 0 0
23-07-2019 37.4 (18:50) 22 (00:00) 29.7 15.28 (05:40) 11.39 (06:40) 2.4 2.4 0 0 0
22-07-2019 39.2 (16:50) 24.2 (00:00) 31.7 12.78 (22:50) 8.89 (23:00) 0 0 0 0 0
21-07-2019 38.8 (18:10) 20.6 (00:00) 29.7 8.61 (17:50) 3.89 (19:10) 0 0 0 0 0

Gráficas

Temp. máximas Temp. mínimas Temp. medias Precipitaciones Rachas de viento máximas Velocidades máximas media en intervalos de 10 minutos

Datos horarios

Fecha y hora oficial Temperatura (ºC) Velocidad del viento (km/h) Dirección del viento Racha (km/h) Dirección de racha Precipitación (mm) Presión (hPa) Tendencia (hPa) Humedad (%)
2019-08-19 23:00:00 25.1 10 Oeste 26 Noroeste 0 -- -- 32
2019-08-19 22:00:00 25.8 6 Noroeste 17 Noroeste 0 -- -- 30
2019-08-19 21:00:00 26.7 9 Noroeste 21 Noroeste 0 -- -- 28
2019-08-19 20:00:00 27.7 12 Noroeste 24 Noroeste 0 -- -- 29
2019-08-19 19:00:00 30.3 12 Sudoeste 32 Sudoeste 0 -- -- 20
2019-08-19 18:00:00 32 14 Sudoeste 32 Sudoeste 0 -- -- 20
2019-08-19 17:00:00 32.4 8 Oeste 26 Sudoeste 0 -- -- 21
2019-08-19 16:00:00 31.5 15 Sur 31 Sudoeste 0 -- -- 21
2019-08-19 15:00:00 31 15 Sudoeste 27 Sudoeste 0 -- -- 27
2019-08-19 14:00:00 29.6 12 Sudoeste 26 Sudoeste 0 -- -- 28
2019-08-19 13:00:00 28.2 11 Sudoeste 23 Oeste 0 -- -- 28
2019-08-19 12:00:00 25.2 12 Sudoeste 20 Sudoeste 0 -- -- 49
2019-08-19 11:00:00 23 10 Sudoeste 19 Sudoeste 0 -- -- 57
2019-08-19 10:00:00 19.5 9 Sur 14 Sur 0 -- -- 69
2019-08-19 09:00:00 17.2 8 Sur 12 Sur 0 -- -- 78
2019-08-19 08:00:00 16.2 8 Sur 11 Sur 0 -- -- 84
2019-08-19 07:00:00 16.5 7 Sudoeste 10 Sur 0 -- -- 82
2019-08-19 06:00:00 16.8 7 Sur 12 Sur 0 -- -- 83
2019-08-19 05:00:00 17.5 6 Sur 11 Sur 0 -- -- 82
2019-08-19 04:00:00 18.7 8 Sur 17 Sur 0 -- -- 77
2019-08-19 03:00:00 20 11 Sudoeste 17 Sudoeste 0 -- -- 72
2019-08-19 02:00:00 21.1 9 Sudoeste 17 Sudoeste 0 -- -- 68
2019-08-19 01:00:00 22 8 Sudoeste 22 Oeste 0 -- -- 63
2019-08-19 00:00:00 23.8 9 Oeste 25 Sudoeste 0 -- -- 58
2019-08-18 23:00:00 25.5 12 Oeste 29 Noroeste 0 -- -- 52
2019-08-18 22:00:00 27.3 13 Oeste 32 Oeste 0 -- -- 48
2019-08-18 21:00:00 29.5 9 Oeste 29 Sudoeste 0 -- -- 34
2019-08-18 20:00:00 31.4 12 Oeste 32 Oeste 0 -- -- 31
2019-08-18 19:00:00 32.9 12 Oeste 33 Sudoeste 0 -- -- 26
2019-08-18 18:00:00 33.4 14 Oeste 32 Sudoeste 0 -- -- 21
2019-08-18 17:00:00 33.7 17 Sudoeste 33 Sudoeste 0 -- -- 23
2019-08-18 16:00:00 33.8 13 Sudoeste 34 Sudoeste 0 -- -- 23
2019-08-18 15:00:00 32.7 15 Sudoeste 32 Sudoeste 0 -- -- 26
2019-08-18 14:00:00 31.7 12 Oeste 28 Sudoeste 0 -- -- 28
2019-08-18 13:00:00 30 13 Sudoeste 27 Sudoeste 0 -- -- 33
2019-08-18 12:00:00 26.9 13 Sudoeste 20 Sudoeste 0 -- -- 40
2019-08-18 11:00:00 24.5 10 Sudoeste 17 Sudoeste 0 -- -- 46
2019-08-18 10:00:00 21.3 10 Sudeste 15 Sudeste 0 -- -- 53
2019-08-18 09:00:00 18.8 9 Sudeste 13 Sudeste 0 -- -- 60
2019-08-18 08:00:00 17.8 6 Sudoeste 12 Sur 0 -- -- 63
2019-08-18 07:00:00 18.3 8 Sur 14 Sur 0 -- -- 60
2019-08-18 06:00:00 19 10 Sur 14 Sur 0 -- -- 56
2019-08-18 05:00:00 20.2 8 Sur 13 Sudoeste 0 -- -- 52
2019-08-18 04:00:00 21.6 8 Sur 12 Sur 0 -- -- 47
2019-08-18 03:00:00 23 8 Sur 13 Sudeste 0 -- -- 42
2019-08-18 02:00:00 24.1 8 Sudeste 12 Sudeste 0 -- -- 31
2019-08-18 01:00:00 25.1 6 Sudoeste 14 Sudoeste 0 -- -- 26
2019-08-18 00:00:00 27.3 6 Oeste 21 Oeste 0 -- -- 21
2019-08-17 23:00:00 27.4 8 Sudoeste 13 Sudoeste 0 -- -- 17
2019-08-17 22:00:00 28.6 6 Sudoeste 12 Sudoeste 0 -- -- 15
2019-08-17 21:00:00 32.2 7 Sudoeste 22 Sudoeste 0 -- -- 13
2019-08-17 20:00:00 35.1 13 Sudoeste 27 Sudoeste 0 -- -- 12
2019-08-17 19:00:00 36.5 16 Sudoeste 31 Sudoeste 0 -- -- 11
2019-08-17 18:00:00 37.2 12 Oeste 42 Sudoeste 0 -- -- 11
2019-08-17 17:00:00 37.1 17 Sur 30 Sudoeste 0 -- -- 13
2019-08-17 16:00:00 36.4 15 Sur 33 Sudoeste 0 -- -- 15
2019-08-17 15:00:00 35.6 19 Sudoeste 30 Sudoeste 0 -- -- 18
2019-08-17 14:00:00 34.7 14 Sur 33 Sur 0 -- -- 18
2019-08-17 13:00:00 33.3 11 Sudoeste 24 Sudoeste 0 -- -- 23
2019-08-17 12:00:00 30.6 8 Sudoeste 17 Sudoeste 0 -- -- 29
2019-08-17 11:00:00 27.1 7 Sur 16 Sudoeste 0 -- -- 36
2019-08-17 10:00:00 23.7 8 Sudeste 13 Sudeste 0 -- -- 42
2019-08-17 09:00:00 21.7 6 Sur 13 Sudeste 0 -- -- 47
2019-08-17 08:00:00 20.5 9 Sudeste 13 Sudeste 0 -- -- 49
2019-08-17 07:00:00 21 8 Sudeste 14 Sudeste 0 -- -- 47
2019-08-17 06:00:00 21.3 8 Sudeste 15 Sur 0 -- -- 45
2019-08-17 05:00:00 22.5 9 Sudeste 12 Sudeste 0 -- -- 41
2019-08-17 04:00:00 23.2 10 Sudeste 16 Sudeste 0 -- -- 40
2019-08-17 03:00:00 23.8 10 Sudeste 14 Sudeste 0 -- -- 39
2019-08-17 02:00:00 24.4 6 Sudeste 9 Sudeste 0 -- -- 38
2019-08-17 01:00:00 25.3 6 Sur 14 Sudoeste 0 -- -- 37
2019-08-17 00:00:00 27.4 9 Sudoeste 21 Oeste 0 -- -- 33
2019-08-16 23:00:00 29.7 8 Oeste 25 Oeste 0 -- -- 26
2019-08-16 22:00:00 30.7 6 Noroeste 12 Oeste 0 -- -- 24
2019-08-16 21:00:00 33.3 7 Oeste 22 Oeste 0 -- -- 22
2019-08-16 20:00:00 35.6 10 Oeste 26 Sudoeste 0 -- -- 18
2019-08-16 19:00:00 37.1 9 Oeste 26 Oeste 0 -- -- 20
2019-08-16 18:00:00 37.1 10 Oeste 24 Oeste 0 -- -- 20
2019-08-16 17:00:00 37.1 16 Sudoeste 32 Sudoeste 0 -- -- 20
2019-08-16 16:00:00 36.8 14 Sudoeste 30 Sudoeste 0 -- -- 21
2019-08-16 15:00:00 35.9 16 Sudoeste 27 Sudoeste 0 -- -- 20
2019-08-16 14:00:00 34.8 15 Sur 26 Sudoeste 0 -- -- 24
2019-08-16 13:00:00 33.8 8 Sudoeste 18 Sudoeste 0 -- -- 26
2019-08-16 12:00:00 31.8 8 Sudoeste 15 Sudoeste 0 -- -- 28
2019-08-16 11:00:00 29.1 5 Sudoeste 13 Sudeste 0 -- -- 31
2019-08-16 10:00:00 25.3 9 Sudeste 14 Sudeste 0 -- -- 40
2019-08-16 09:00:00 23.9 8 Sudeste 10 Este 0 -- -- 40
2019-08-16 08:00:00 21.8 8 Este 11 Este 0 -- -- 44
2019-08-16 07:00:00 22.2 4 Sudeste 12 Nordeste 0 -- -- 40
2019-08-16 06:00:00 23.2 6 Este 16 Nordeste 0 -- -- 37
2019-08-16 05:00:00 23.4 9 Este 12 Este 0 -- -- 36
2019-08-16 04:00:00 24.1 6 Sudeste 12 Sudeste 0 -- -- 34
2019-08-16 03:00:00 24.8 11 Sudeste 13 Este 0 -- -- 32
2019-08-16 02:00:00 25.7 9 Sudeste 15 Noroeste 0 -- -- 32
2019-08-16 01:00:00 28.3 12 Noroeste 20 Norte 0 -- -- 30
2019-08-16 00:00:00 28.7 15 Noroeste 24 Noroeste 0 -- -- 28
2019-08-15 23:00:00 30.3 8 Noroeste 15 Noroeste 0 -- -- 24
2019-08-15 22:00:00 30.7 7 Noroeste 14 Oeste 0 -- -- 24
2019-08-15 21:00:00 33.1 6 Noroeste 23 Oeste 0 -- -- 22
2019-08-15 20:00:00 35.4 11 Oeste 23 Oeste 0 -- -- 20
2019-08-15 19:00:00 36.4 10 Noroeste 20 Sudoeste 0 -- -- 20
2019-08-15 18:00:00 36.4 8 Noroeste 26 Noroeste 0 -- -- 22
2019-08-15 17:00:00 36.3 10 Norte 24 Noroeste 0 -- -- 21
2019-08-15 16:00:00 36.1 8 Noroeste 26 Oeste 0 -- -- 22
2019-08-15 15:00:00 36.2 12 Sudoeste 28 Sudoeste 0 -- -- 23
2019-08-15 14:00:00 35.2 9 Sudoeste 19 Sudoeste 0 -- -- 24
2019-08-15 13:00:00 34.3 9 Sudoeste 16 Sudoeste 0 -- -- 25
2019-08-15 12:00:00 32.5 8 Oeste 16 Sudoeste 0 -- -- 28
2019-08-15 11:00:00 29.7 4 Oeste 11 Oeste 0 -- -- 31
2019-08-15 10:00:00 26.2 4 Este 7 Sudeste 0 -- -- 32
2019-08-15 09:00:00 23.8 5 Este 10 Este 0 -- -- 34
2019-08-15 08:00:00 20.8 4 Nordeste 5 Este 0 -- -- 38
2019-08-15 07:00:00 20.9 5 Este 9 Sudeste 0 -- -- 35
2019-08-15 06:00:00 22.5 7 Sudeste 13 Este 0 -- -- 33
2019-08-15 05:00:00 22.7 10 Este 13 Este 0 -- -- 32
2019-08-15 04:00:00 23.2 10 Este 14 Este 0 -- -- 30
2019-08-15 03:00:00 23.4 7 Este 12 Sudeste 0 -- -- 30
2019-08-15 02:00:00 24.3 3 Este 9 Este 0 -- -- 29
2019-08-15 01:00:00 26.8 5 Noroeste 9 Noroeste 0 -- -- 25
2019-08-15 00:00:00 27.5 6 Noroeste 12 Noroeste 0 -- -- 24
2019-08-14 23:00:00 28.4 8 Oeste 13 Noroeste 0 -- -- 24
2019-08-14 22:00:00 28.8 6 Noroeste 11 Noroeste 0 -- -- 24
2019-08-14 21:00:00 31.5 5 Noroeste 17 Oeste 0 -- -- 20
2019-08-14 20:00:00 33.6 9 Oeste 22 Sudoeste 0 -- -- 17
2019-08-14 19:00:00 34.9 9 Oeste 26 Oeste 0 -- -- 16
2019-08-14 18:00:00 34.8 12 Oeste 24 Sudoeste 0 -- -- 16
2019-08-14 17:00:00 34.7 9 Oeste 21 Oeste 0 -- -- 16
2019-08-14 16:00:00 34 5 Nordeste 20 Oeste 0 -- -- 17
2019-08-14 15:00:00 33.4 11 Sudoeste 23 Sudoeste 0 -- -- 17
2019-08-14 14:00:00 32.7 8 Oeste 21 Oeste 0 -- -- 17
2019-08-14 13:00:00 31.7 10 Sudoeste 19 Sudoeste 0 -- -- 18
2019-08-14 12:00:00 29.9 5 Nordeste 18 Norte 0 -- -- 19
2019-08-14 11:00:00 27.6 5 Sur 12 Nordeste 0 -- -- 22
2019-08-14 10:00:00 25.6 9 Nordeste 22 Nordeste 0 -- -- 24
2019-08-14 09:00:00 22.8 17 Nordeste 23 Nordeste 0 -- -- 26
2019-08-14 08:00:00 19.1 15 Nordeste 17 Nordeste 0 -- -- 33
2019-08-14 07:00:00 18.2 6 Nordeste 9 Norte 0 -- -- 35
2019-08-14 06:00:00 19 3 Nordeste 9 Nordeste 0 -- -- 33
2019-08-14 05:00:00 19.3 7 Nordeste 12 Este 0 -- -- 28
2019-08-14 04:00:00 21.4 10 Este 14 Este 0 -- -- 24
2019-08-14 03:00:00 21.8 9 Este 13 Este 0 -- -- 24
2019-08-14 02:00:00 22.5 9 Este 14 Este 0 -- -- 23
2019-08-14 01:00:00 22.7 7 Sudeste 11 Este 0 -- -- 24
2019-08-14 00:00:00 24.6 11 Noroeste 14 Noroeste 0 -- -- 24
2019-08-13 23:00:00 25.7 9 Noroeste 15 Noroeste 0 -- -- 23
2019-08-13 22:00:00 25.7 6 Noroeste 13 Noroeste 0 -- -- 19
2019-08-13 21:00:00 28.4 8 Noroeste 21 Noroeste 0 -- -- 15
2019-08-13 20:00:00 30.9 8 Oeste 23 Sudoeste 0 -- -- 16
2019-08-13 19:00:00 31.4 11 Noroeste 22 Noroeste 0 -- -- 15
2019-08-13 18:00:00 31.6 6 Oeste 22 Noroeste 0 -- -- 16
2019-08-13 17:00:00 32.3 10 Oeste 18 Sudoeste 0 -- -- 17
2019-08-13 16:00:00 30.9 11 Norte 27 Noroeste 0 -- -- 19
2019-08-13 15:00:00 30.4 10 Norte 22 Norte 0 -- -- 22
2019-08-13 14:00:00 29.2 12 Nordeste 21 Nordeste 0 -- -- 26
2019-08-13 13:00:00 28.2 10 Norte 31 Nordeste 0 -- -- 28
2019-08-13 12:00:00 26.4 19 Nordeste 36 Nordeste 0 -- -- 34
2019-08-13 11:00:00 24.3 29 Nordeste 41 Nordeste 0 -- -- 37
2019-08-13 10:00:00 22 30 Nordeste 43 Nordeste 0 -- -- 41
2019-08-13 09:00:00 20.1 33 Nordeste 43 Nordeste 0 -- -- 39
2019-08-13 08:00:00 18.5 33 Nordeste 42 Nordeste 0 -- -- 41
2019-08-13 07:00:00 18.6 32 Nordeste 42 Nordeste 0 -- -- 40
2019-08-13 06:00:00 19.1 31 Nordeste 42 Nordeste 0 -- -- 35
2019-08-13 05:00:00 20.1 20 Nordeste 33 Nordeste 0 -- -- 30
2019-08-13 04:00:00 20.8 18 Nordeste 29 Nordeste 0 -- -- 28
2019-08-13 03:00:00 20.7 18 Nordeste 23 Nordeste 0 -- -- 27
2019-08-13 02:00:00 20 13 Nordeste 16 Nordeste 0 -- -- 31
2019-08-13 01:00:00 20.7 12 Norte 17 Norte 0 -- -- 30
2019-08-13 00:00:00 21.7 11 Norte 20 Norte 0 -- -- 29
2019-08-12 23:00:00 21.2 10 Norte 17 Noroeste 0 -- -- 29
2019-08-12 22:00:00 22.9 14 Noroeste 20 Noroeste 0 -- -- 27
2019-08-12 21:00:00 25.6 7 Norte 18 Norte 0 -- -- 22
2019-08-12 20:00:00 27.6 8 Norte 24 Norte 0 -- -- 19
2019-08-12 19:00:00 28.3 12 Norte 25 Norte 0 -- -- 18
2019-08-12 18:00:00 28.7 12 Nordeste 21 Norte 0 -- -- 19
2019-08-12 17:00:00 28.3 9 Nordeste 24 Norte 0 -- -- 20
2019-08-12 16:00:00 28.4 14 Norte 30 Norte 0 -- -- 21
2019-08-12 15:00:00 27.6 7 Este 26 Este 0 -- -- 23
2019-08-12 14:00:00 26.6 12 Norte 26 Noroeste 0 -- -- 24
2019-08-12 13:00:00 25 12 Norte 26 Nordeste 0 -- -- 28
2019-08-12 12:00:00 23.7 13 Norte 25 Norte 0 -- -- 32
2019-08-12 11:00:00 22.3 16 Nordeste 28 Nordeste 0 -- -- 34
2019-08-12 10:00:00 18.8 7 Norte 13 Noroeste 0 -- -- 43
2019-08-12 09:00:00 15.9 6 Noroeste 12 Noroeste 0 -- -- 52
2019-08-12 08:00:00 13.6 4 Noroeste 6 Noroeste 0 -- -- 60
2019-08-12 07:00:00 12.6 2 Norte 6 Este 0 -- -- 65
2019-08-12 06:00:00 12.5 5 Este 9 Este 0 -- -- 64
2019-08-12 05:00:00 14.2 4 Sudeste 15 Noroeste 0 -- -- 57
2019-08-12 04:00:00 15.6 8 Noroeste 15 Oeste 0 -- -- 53
2019-08-12 03:00:00 16.4 10 Noroeste 21 Noroeste 0 -- -- 52
2019-08-12 02:00:00 17.3 11 Noroeste 30 Noroeste 0 -- -- 50
2019-08-12 01:00:00 18.3 16 Noroeste 40 Noroeste 0 -- -- 45
2019-08-12 00:00:00 19.3 13 Noroeste 33 Noroeste 0 -- -- 37
2019-08-11 23:00:00 20.3 15 Noroeste 27 Oeste 0 -- -- 33
2019-08-11 22:00:00 21.5 14 Noroeste 28 Oeste 0 -- -- 32
2019-08-11 21:00:00 23.5 15 Oeste 31 Oeste 0 -- -- 28
2019-08-11 20:00:00 25.2 12 Oeste 31 Oeste 0 -- -- 26
2019-08-11 19:00:00 26.5 14 Oeste 37 Oeste 0 -- -- 25
2019-08-11 18:00:00 26.1 18 Noroeste 41 Sudoeste 0 -- -- 21
2019-08-11 17:00:00 26.9 13 Oeste 32 Sudoeste 0 -- -- 22
2019-08-11 16:00:00 26.2 12 Oeste 34 Noroeste 0 -- -- 29
2019-08-11 15:00:00 26.9 13 Oeste 31 Oeste 0 -- -- 30
2019-08-11 14:00:00 25.4 13 Oeste 29 Sudoeste 0 -- -- 37
2019-08-11 13:00:00 23.5 10 Sudoeste 29 Sudoeste 0 -- -- 45
2019-08-11 12:00:00 22.7 9 Sudoeste 19 Sudoeste 0 -- -- 47
2019-08-11 11:00:00 20.1 10 Sudoeste 16 Sudoeste 0 -- -- 56
2019-08-11 10:00:00 17.6 8 Sudoeste 16 Sudoeste 0 -- -- 62
2019-08-11 09:00:00 16 9 Sur 13 Sur 0 -- -- 67
2019-08-11 08:00:00 14.9 9 Sur 14 Sudoeste 0 -- -- 69
2019-08-11 07:00:00 15.7 12 Sudoeste 25 Sudoeste 0 -- -- 66
2019-08-11 06:00:00 17.3 16 Sudoeste 28 Sudoeste 0 -- -- 63
2019-08-11 05:00:00 18.8 10 Sudeste 17 Este 0 -- -- 58
2019-08-11 04:00:00 19.5 5 Oeste 15 Sudoeste 0 -- -- 57
2019-08-11 03:00:00 19.8 10 Sudoeste 22 Sudoeste 0 -- -- 55
2019-08-11 02:00:00 20.6 9 Sudoeste 23 Sudoeste 0 -- -- 54
2019-08-11 01:00:00 21.7 8 Sudoeste 20 Oeste 0 -- -- 47
2019-08-11 00:00:00 23.4 8 Oeste 20 Noroeste 0 -- -- 41
2019-08-10 23:00:00 24.3 5 Noroeste 14 Noroeste 0 -- -- 33
2019-08-10 22:00:00 24.7 6 Noroeste 14 Oeste 0 -- -- 31
2019-08-10 21:00:00 26.6 8 Oeste 19 Oeste 0 -- -- 27
2019-08-10 20:00:00 28.1 7 Oeste 22 Sudoeste 0 -- -- 21
2019-08-10 19:00:00 30.6 10 Oeste 24 Oeste 0 -- -- 19
2019-08-10 18:00:00 31.5 10 Sudoeste 23 Sudoeste 0 -- -- 20
2019-08-10 17:00:00 30.1 10 Oeste 24 Sudoeste 0 -- -- 25
2019-08-10 16:00:00 29.8 9 Oeste 23 Sur 0 -- -- 27
2019-08-10 15:00:00 30 12 Sudoeste 19 Oeste 0 -- -- 25
2019-08-10 14:00:00 28.5 10 Sudoeste 22 Sudoeste 0 -- -- 27
2019-08-10 13:00:00 26.5 7 Oeste 19 Sudoeste 0 -- -- 36
2019-08-10 12:00:00 23.9 5 Oeste 15 Oeste 0 -- -- 43
2019-08-10 11:00:00 21.8 5 Sudoeste 10 Sudoeste 0 -- -- 60
2019-08-10 10:00:00 18.6 4 Sur 11 Sudeste 0 -- -- 74
2019-08-10 09:00:00 16.5 8 Sudeste 12 Sudeste 0 -- -- 83
2019-08-10 08:00:00 14.8 9 Sudeste 13 Sudeste 0 -- -- 89
2019-08-10 07:00:00 14.7 4 Sur 10 Este 0 -- -- 90
2019-08-10 06:00:00 15.3 5 Sudeste 10 Sudeste 0 -- -- 86
2019-08-10 05:00:00 15.8 3 Sudoeste 6 Noroeste 0 -- -- 85
2019-08-10 04:00:00 16.2 4 Sudoeste 8 Sudoeste 0 -- -- 82
2019-08-10 03:00:00 16.6 2 Sur 7 Sudeste 0 -- -- 80
2019-08-10 02:00:00 17 2 Sur 8 Oeste 0 -- -- 80
2019-08-10 01:00:00 17.4 3 Oeste 9 Este 0 -- -- 77
2019-08-10 00:00:00 16.5 8 Nordeste 10 Nordeste 0 -- -- 80
2019-08-09 23:00:00 17.8 5 Norte 10 Noroeste 0 -- -- 75
2019-08-09 22:00:00 19.6 5 Noroeste 14 Oeste 0 -- -- 68
2019-08-09 21:00:00 22.8 7 Oeste 18 Sudoeste 0 -- -- 60
2019-08-09 20:00:00 23.1 11 Sudoeste 21 Sudoeste 0 -- -- 63
2019-08-09 19:00:00 22.1 7 Noroeste 25 Noroeste 0.2 -- -- 65
2019-08-09 18:00:00 24 12 Oeste 30 Oeste 0 -- -- 60
2019-08-09 17:00:00 20.6 13 Oeste 31 Oeste 0 -- -- 82
2019-08-09 16:00:00 23.8 12 Oeste 32 Sudoeste 0.2 -- -- 84
2019-08-09 15:00:00 26.1 14 Sudoeste 40 Sudoeste 0 -- -- 63
2019-08-09 14:00:00 27.3 19 Sudoeste 35 Sudoeste 0 -- -- 58
2019-08-09 13:00:00 24.3 21 Sudoeste 34 Sudoeste 0 -- -- 70
2019-08-09 12:00:00 23.4 19 Sudoeste 33 Sudoeste 0 -- -- 73
2019-08-09 11:00:00 21.9 18 Sudoeste 30 Sudoeste 0 -- -- 79
2019-08-09 10:00:00 20.9 19 Sur 26 Sudoeste 0 -- -- 83
2019-08-09 09:00:00 20.4 13 Sur 21 Sur 0 -- -- 84
2019-08-09 08:00:00 19.8 10 Sur 24 Sudoeste 0 -- -- 86
2019-08-09 07:00:00 19.8 17 Sudoeste 22 Sudoeste 0 -- -- 86
2019-08-09 06:00:00 19.4 5 Sudoeste 10 Sudoeste 0 -- -- 88
2019-08-09 05:00:00 19.6 6 Sudoeste 15 Oeste 0 -- -- 85
2019-08-09 04:00:00 20.5 6 Sudoeste 16 Sudoeste 0 -- -- 82
2019-08-09 03:00:00 21.6 8 Sudoeste 14 Sudoeste 0 -- -- 74
2019-08-09 02:00:00 22.6 3 Oeste 12 Sudoeste 0 -- -- 66
2019-08-09 01:00:00 23.8 5 Sudoeste 23 Oeste 0 -- -- 60
2019-08-09 00:00:00 25.3 10 Oeste 22 Oeste 0 -- -- 54
2019-08-08 23:00:00 26.5 10 Oeste 22 Oeste 0 -- -- 47
2019-08-08 22:00:00 27.7 9 Oeste 27 Sudoeste 0 -- -- 45
2019-08-08 21:00:00 30.3 16 Sudoeste 39 Sudoeste 0 -- -- 37
2019-08-08 20:00:00 31.8 19 Sudoeste 42 Sudoeste 0 -- -- 34
2019-08-08 19:00:00 32.6 22 Sudoeste 39 Sudoeste 0 -- -- 32
2019-08-08 18:00:00 33.1 22 Sudoeste 43 Sudoeste 0 -- -- 29
2019-08-08 17:00:00 33 17 Sudoeste 47 Sudoeste 0 -- -- 31
2019-08-08 16:00:00 32.1 21 Sur 47 Sur 0 -- -- 31
2019-08-08 15:00:00 31.9 17 Sudoeste 34 Sudoeste 0 -- -- 33
2019-08-08 14:00:00 31 12 Sudoeste 33 Sudoeste 0 -- -- 33
2019-08-08 13:00:00 29.6 12 Sudoeste 23 Sur 0 -- -- 35
2019-08-08 12:00:00 27.8 10 Sudoeste 18 Sur 0 -- -- 39
2019-08-08 11:00:00 25.5 6 Sudoeste 12 Sudoeste 0 -- -- 49
2019-08-08 10:00:00 23.3 3 Sur 10 Sudeste 0 -- -- 54
2019-08-08 09:00:00 20.4 8 Sudeste 14 Sudeste 0 -- -- 63
2019-08-08 08:00:00 19.3 3 Sur 10 Sudeste 0 -- -- 67
2019-08-08 07:00:00 19.1 7 Sudeste 11 Sudeste 0 -- -- 68
2019-08-08 06:00:00 19.6 7 Sudeste 12 Sudeste 0 -- -- 66
2019-08-08 05:00:00 19.8 6 Sudeste 15 Sudeste 0 -- -- 65
2019-08-08 04:00:00 19.9 10 Sudeste 14 Sudeste 0 -- -- 65
2019-08-08 03:00:00 20.1 6 Este 12 Este 0 -- -- 64
2019-08-08 02:00:00 20.5 3 Sur 10 Sur 0 -- -- 63
2019-08-08 01:00:00 20.8 3 Sur 9 Sudoeste 0 -- -- 63
2019-08-08 00:00:00 21.9 7 Sudeste 11 Sudeste 0 -- -- 59
2019-08-07 23:00:00 22 3 Sur 5 Sur 0 -- -- 59
2019-08-07 22:00:00 22.8 5 Sudoeste 18 Sudoeste 0 -- -- 55
2019-08-07 21:00:00 25.2 12 Sudoeste 20 Sudoeste 0 -- -- 48
2019-08-07 20:00:00 26.1 9 Sudoeste 18 Sudoeste 0 -- -- 46
2019-08-07 19:00:00 26.9 8 Sudoeste 24 Sudoeste 0 -- -- 43
2019-08-07 18:00:00 26.8 11 Sudoeste 18 Sudoeste 0 -- -- 43
2019-08-07 17:00:00 25.8 6 Oeste 17 Sudoeste 0 -- -- 44
2019-08-07 16:00:00 25.7 3 Nordeste 10 Noroeste 0 -- -- 42
2019-08-07 15:00:00 24 6 Noroeste 18 Noroeste 0 -- -- 51
2019-08-07 14:00:00 24.2 7 Oeste 20 Sudoeste 0 -- -- 55
2019-08-07 13:00:00 22.4 7 Sudoeste 19 Sudoeste 0 -- -- 61
2019-08-07 12:00:00 22.5 9 Sudoeste 24 Sudoeste 0 -- -- 60
2019-08-07 11:00:00 21.7 9 Sudoeste 19 Sudoeste 0 -- -- 63
2019-08-07 10:00:00 20.2 11 Sudoeste 21 Sudoeste 0 -- -- 67
2019-08-07 09:00:00 19.4 10 Sur 17 Sudoeste 0 -- -- 68
2019-08-07 08:00:00 18.9 10 Sudoeste 16 Sudoeste 0 -- -- 70
2019-08-07 07:00:00 19.2 9 Sur 15 Sudoeste 0 -- -- 67
2019-08-07 06:00:00 19.7 10 Sur 17 Sur 0 -- -- 63
2019-08-07 05:00:00 20.2 12 Sur 18 Sur 0 -- -- 61
2019-08-07 04:00:00 20.8 10 Sudoeste 15 Sudoeste 0 -- -- 61
2019-08-07 03:00:00 21.3 8 Sur 15 Sudoeste 0 -- -- 58
2019-08-07 02:00:00 22.3 9 Sudoeste 15 Sudoeste 0 -- -- 54
2019-08-07 01:00:00 23 7 Sudoeste 14 Sudoeste 0 -- -- 49
2019-08-07 00:00:00 24.5 7 Oeste 18 Sudoeste 0 -- -- 45
2019-08-06 23:00:00 26.2 11 Oeste 23 Oeste 0 -- -- 41
2019-08-06 22:00:00 27.8 9 Oeste 23 Sudoeste 0 -- -- 37
2019-08-06 21:00:00 30.4 18 Sudoeste 28 Sudoeste 0 -- -- 27
2019-08-06 20:00:00 31.8 19 Sudoeste 31 Sur 0 -- -- 24
2019-08-06 19:00:00 33.8 15 Sudoeste 31 Sudoeste 0 -- -- 21
2019-08-06 18:00:00 33.8 16 Sudoeste 34 Sudoeste 0 -- -- 23
2019-08-06 17:00:00 34.9 18 Sudoeste 37 Sudoeste 0 -- -- 20
2019-08-06 16:00:00 34 19 Sudoeste 36 Sudoeste 0 -- -- 23
2019-08-06 15:00:00 33.3 17 Sudoeste 34 Sudoeste 0 -- -- 26
2019-08-06 14:00:00 32 14 Sudoeste 27 Sudoeste 0 -- -- 29
2019-08-06 13:00:00 30 14 Sur 31 Sudoeste 0 -- -- 33
2019-08-06 12:00:00 29.1 10 Sur 21 Sudoeste 0 -- -- 34
2019-08-06 11:00:00 26.3 8 Sur 17 Sur 0 -- -- 39
2019-08-06 10:00:00 23 8 Sudeste 16 Sudeste 0 -- -- 48
2019-08-06 09:00:00 19.9 10 Sudeste 15 Sudeste 0 -- -- 51
2019-08-06 08:00:00 18.9 8 Sur 12 Oeste 0 -- -- 52
2019-08-06 07:00:00 19.1 5 Oeste 14 Sur 0 -- -- 53
2019-08-06 06:00:00 20.5 9 Sudeste 14 Sudeste 0 -- -- 46
2019-08-06 05:00:00 21.1 8 Sudeste 14 Sudeste 0 -- -- 45
2019-08-06 04:00:00 21.3 9 Sudeste 13 Sudeste 0 -- -- 44
2019-08-06 03:00:00 22.5 8 Sur 13 Sur 0 -- -- 41
2019-08-06 02:00:00 23.5 7 Sur 11 Sur 0 -- -- 33
2019-08-06 01:00:00 24.7 6 Sudoeste 18 Sudoeste 0 -- -- 29
2019-08-06 00:00:00 26.3 6 Sur 10 Sur 0 -- -- 17
2019-08-05 23:00:00 27.7 5 Oeste 9 Sudoeste 0 -- -- 16
2019-08-05 22:00:00 28.5 5 Oeste 9 Oeste 0 -- -- 14
2019-08-05 21:00:00 32.5 8 Sudoeste 21 Sudoeste 0 -- -- 12
2019-08-05 20:00:00 34 14 Sudoeste 26 Sudoeste 0 -- -- 11
2019-08-05 19:00:00 35.1 12 Sudoeste 34 Sudoeste 0 -- -- 12
2019-08-05 18:00:00 35.5 10 Sudoeste 31 Sudoeste 0 -- -- 15
2019-08-05 17:00:00 35.8 10 Oeste 31 Sudoeste 0 -- -- 14
2019-08-05 16:00:00 34.4 15 Sur 32 Sudoeste 0 -- -- 18
2019-08-05 15:00:00 33.6 20 Sudoeste 34 Sudoeste 0 -- -- 17
2019-08-05 14:00:00 32.7 21 Sudoeste 32 Sudoeste 0 -- -- 22
2019-08-05 13:00:00 30.7 13 Sudoeste 21 Sudoeste 0 -- -- 26
2019-08-05 12:00:00 27.9 11 Sur 18 Sudoeste 0 -- -- 34
2019-08-05 11:00:00 24.9 7 Sudoeste 12 Sudoeste 0 -- -- 44
2019-08-05 10:00:00 22.1 5 Sur 9 Sudoeste 0 -- -- 51
2019-08-05 09:00:00 19.9 6 Sudeste 11 Sudeste 0 -- -- 53
2019-08-05 08:00:00 18.5 8 Sudeste 15 Sudeste 0 -- -- 57
2019-08-05 07:00:00 18.3 9 Sudeste 13 Sudeste 0 -- -- 59
2019-08-05 06:00:00 18.3 5 Sudeste 7 Sudeste 0 -- -- 62
2019-08-05 05:00:00 18.5 4 Sur 10 Sur 0 -- -- 62
2019-08-05 04:00:00 19.6 7 Sur 13 Sur 0 -- -- 57
2019-08-05 03:00:00 20.8 9 Sur 14 Sur 0 -- -- 51
2019-08-05 02:00:00 21.8 8 Sur 10 Sur 0 -- -- 46
2019-08-05 01:00:00 23.1 5 Oeste 13 Sudoeste 0 -- -- 42
2019-08-05 00:00:00 25.3 7 Oeste 18 Oeste 0 -- -- 37
2019-08-04 23:00:00 27.3 10 Oeste 25 Oeste 0 -- -- 33
2019-08-04 22:00:00 29.1 9 Oeste 24 Sudoeste 0 -- -- 30
2019-08-04 21:00:00 32.7 9 Sudoeste 28 Sudoeste 0 -- -- 22
2019-08-04 20:00:00 34 15 Sudoeste 29 Sudoeste 0 -- -- 22
2019-08-04 19:00:00 34.8 15 Sudoeste 29 Sudoeste 0 -- -- 21
2019-08-04 18:00:00 35.4 8 Sudoeste 25 Sudoeste 0 -- -- 20
2019-08-04 17:00:00 35 12 Sudoeste 32 Sudoeste 0 -- -- 21
2019-08-04 16:00:00 34.3 17 Sudoeste 34 Sudoeste 0 -- -- 24
2019-08-04 15:00:00 33.4 7 Sudoeste 22 Sur 0 -- -- 25
2019-08-04 14:00:00 31.8 14 Sur 26 Sur 0 -- -- 27
2019-08-04 13:00:00 30.1 13 Sudoeste 25 Sur 0 -- -- 33
2019-08-04 12:00:00 28 13 Sudoeste 23 Sudoeste 0 -- -- 39
2019-08-04 11:00:00 25.7 11 Sudoeste 18 Sudoeste 0 -- -- 46
2019-08-04 10:00:00 22.6 13 Sur 19 Sur 0 -- -- 56
2019-08-04 09:00:00 20.2 10 Sur 16 Sur 0 -- -- 60
2019-08-04 08:00:00 19.5 8 Sudeste 15 Sur 0 -- -- 60
2019-08-04 07:00:00 19.2 10 Sudeste 15 Sudeste 0 -- -- 61
2019-08-04 06:00:00 20 8 Sudeste 13 Sur 0 -- -- 59
2019-08-04 05:00:00 20.9 7 Sur 12 Sur 0 -- -- 56
2019-08-04 04:00:00 21.7 8 Sur 14 Sur 0 -- -- 53
2019-08-04 03:00:00 22.4 7 Sur 12 Sudeste 0 -- -- 47
2019-08-04 02:00:00 23.7 7 Sudeste 11 Sudeste 0 -- -- 35
2019-08-04 01:00:00 24.3 6 Sudoeste 17 Oeste 0 -- -- 33
2019-08-04 00:00:00 26.3 13 Sudoeste 19 Sudoeste 0 -- -- 26
2019-08-03 23:00:00 26.9 5 Oeste 12 Oeste 0 -- -- 24
2019-08-03 22:00:00 28.2 6 Sudoeste 18 Sudoeste 0 -- -- 23
2019-08-03 21:00:00 32.6 9 Sudoeste 21 Oeste 0 -- -- 19
2019-08-03 20:00:00 34.6 9 Sudoeste 22 Sudoeste 0 -- -- 15
2019-08-03 19:00:00 35.7 11 Oeste 23 Sudoeste 0 -- -- 15
2019-08-03 18:00:00 35.3 19 Sudoeste 33 Oeste 0 -- -- 17
2019-08-03 17:00:00 35.3 14 Sudoeste 31 Sudoeste 0 -- -- 19
2019-08-03 16:00:00 35.4 9 Sudoeste 33 Sudoeste 0 -- -- 20
2019-08-03 15:00:00 34.1 13 Sudoeste 27 Sur 0 -- -- 24
2019-08-03 14:00:00 33.5 8 Sudoeste 22 Sudoeste 0 -- -- 25
2019-08-03 13:00:00 31.7 8 Sudoeste 21 Sudoeste 0 -- -- 30
2019-08-03 12:00:00 29.9 8 Sudoeste 15 Oeste 0 -- -- 36
2019-08-03 11:00:00 27.1 5 Oeste 9 Sur 0 -- -- 42
2019-08-03 10:00:00 24.7 3 Sur 11 Sudeste 0 -- -- 49
2019-08-03 09:00:00 22.3 9 Sudeste 13 Sudeste 0 -- -- 47
2019-08-03 08:00:00 20.4 10 Sudeste 14 Sudeste 0 -- -- 48
2019-08-03 07:00:00 20.1 10 Sudeste 14 Sudeste 0 -- -- 48
2019-08-03 06:00:00 20.6 10 Sudeste 14 Sudeste 0 -- -- 40
2019-08-03 05:00:00 21.4 12 Sudeste 15 Sudeste 0 -- -- 40
2019-08-03 04:00:00 21.6 9 Sudeste 16 Sudeste 0 -- -- 38
2019-08-03 03:00:00 22.5 10 Sudeste 14 Sudeste 0 -- -- 25
2019-08-03 02:00:00 23.5 8 Sudeste 16 Este 0 -- -- 21
2019-08-03 01:00:00 24.9 11 Sudeste 14 Sudeste 0 -- -- 19
2019-08-03 00:00:00 26.4 7 Este 9 Este 0 -- -- 19
2019-08-02 23:00:00 27.8 6 Oeste 12 Oeste 0 -- -- 18
2019-08-02 22:00:00 28.9 6 Oeste 12 Sudoeste 0 -- -- 18
2019-08-02 21:00:00 33.1 6 Sudoeste 22 Sudoeste 0 -- -- 15
2019-08-02 20:00:00 34.7 7 Oeste 21 Sudoeste 0 -- -- 14
2019-08-02 19:00:00 35.2 8 Sur 23 Sudoeste 0 -- -- 13
2019-08-02 18:00:00 35.2 5 Oeste 21 Sudoeste 0 -- -- 13
2019-08-02 17:00:00 35 10 Sudoeste 26 Sudoeste 0 -- -- 13
2019-08-02 16:00:00 34.4 10 Sudoeste 25 Sudoeste 0 -- -- 14
2019-08-02 15:00:00 33.6 10 Sudoeste 21 Sudoeste 0 -- -- 16
2019-08-02 14:00:00 31.9 10 Sudoeste 19 Sudoeste 0 -- -- 21
2019-08-02 13:00:00 29.9 6 Sur 20 Sudoeste 0 -- -- 24
2019-08-02 12:00:00 27.5 7 Sudoeste 14 Sudoeste 0 -- -- 31
2019-08-02 11:00:00 24.5 5 Sudoeste 13 Sudoeste 0 -- -- 38
2019-08-02 10:00:00 21.7 5 Sur 10 Sudeste 0 -- -- 44
2019-08-02 09:00:00 18.9 8 Sudeste 15 Sudeste 0 -- -- 45
2019-08-02 08:00:00 17.7 8 Sudeste 12 Sudeste 0 -- -- 47
2019-08-02 07:00:00 17.5 5 Sudeste 9 Sudeste 0 -- -- 49
2019-08-02 06:00:00 18.4 6 Sudeste 10 Sudeste 0 -- -- 45
2019-08-02 05:00:00 19 6 Sudeste 13 Sudeste 0 -- -- 44
2019-08-02 04:00:00 19.7 6 Sur 11 Sudeste 0 -- -- 41
2019-08-02 03:00:00 20.5 9 Sudeste 11 Sudeste 0 -- -- 36
2019-08-02 02:00:00 21.3 4 Sur 13 Sudoeste 0 -- -- 34
2019-08-02 01:00:00 22.5 8 Sudoeste 14 Oeste 0 -- -- 32
2019-08-02 00:00:00 24.3 8 Sudoeste 18 Oeste 0 -- -- 29
2019-08-01 23:00:00 26.5 9 Oeste 19 Oeste 0 -- -- 27
2019-08-01 22:00:00 28.3 6 Noroeste 15 Noroeste 0 -- -- 21
2019-08-01 21:00:00 32.2 7 Oeste 24 Sudoeste 0 -- -- 19
2019-08-01 20:00:00 33.4 11 Oeste 25 Sudoeste 0 -- -- 18
2019-08-01 19:00:00 34.3 10 Oeste 30 Sudoeste 0 -- -- 17
2019-08-01 18:00:00 34.3 11 Sudoeste 30 Sudoeste 0 -- -- 19
2019-08-01 17:00:00 34.4 13 Sudoeste 31 Sudoeste 0 -- -- 19
2019-08-01 16:00:00 33.9 10 Sudoeste 30 Sudoeste 0 -- -- 20
2019-08-01 15:00:00 32.7 13 Sur 30 Sur 0 -- -- 20
2019-08-01 14:00:00 31.8 12 Sudoeste 26 Sudoeste 0 -- -- 24
2019-08-01 13:00:00 30.3 11 Sudoeste 22 Sudoeste 0 -- -- 26
2019-08-01 12:00:00 28.8 9 Sudoeste 19 Sudoeste 0 -- -- 29
2019-08-01 11:00:00 26.4 7 Sur 13 Sudeste 0 -- -- 34
2019-08-01 10:00:00 23.2 8 Sudeste 13 Sudeste 0 -- -- 41
2019-08-01 09:00:00 21.2 8 Sudeste 12 Sudeste 0 -- -- 45
2019-08-01 08:00:00 19.8 7 Sudeste 11 Sudeste 0 -- -- 45
2019-08-01 07:00:00 20.5 6 Sudeste 15 Este 0 -- -- 43
2019-08-01 06:00:00 20.2 8 Este 15 Sudeste 0 -- -- 42
2019-08-01 05:00:00 21.6 10 Sudeste 14 Este 0 -- -- 40
2019-08-01 04:00:00 21.7 8 Sudeste 15 Sudeste 0 -- -- 41
2019-08-01 03:00:00 22.6 10 Sudeste 15 Sudeste 0 -- -- 38
2019-08-01 02:00:00 23.4 9 Sudeste 13 Este 0 -- -- 31
2019-08-01 01:00:00 24.6 4 Sur 10 Sudoeste 0 -- -- 28
2019-08-01 00:00:00 25.7 5 Sudoeste 10 Oeste 0 -- -- 18
2019-07-31 23:00:00 27.4 6 Noroeste 13 Oeste 0 -- -- 16
2019-07-31 22:00:00 28 7 Oeste 14 Oeste 0 -- -- 17
2019-07-31 21:00:00 30.3 5 Sudoeste 15 Sudoeste 0 -- -- 18
2019-07-31 20:00:00 33.4 10 Sudoeste 31 Sudoeste 0 -- -- 15
2019-07-31 19:00:00 34.7 10 Sudoeste 31 Sudoeste 0 -- -- 14
2019-07-31 18:00:00 35.1 13 Sur 37 Sudoeste 0 -- -- 13
2019-07-31 17:00:00 35.1 7 Sudoeste 36 Sudoeste 0 -- -- 14
2019-07-31 16:00:00 34.4 10 Oeste 31 Sudoeste 0 -- -- 14
2019-07-31 15:00:00 34.1 13 Sur 25 Sur 0 -- -- 15
2019-07-31 14:00:00 32.7 12 Este 28 Este 0 -- -- 19
2019-07-31 13:00:00 30.5 10 Nordeste 23 Nordeste 0 -- -- 26
2019-07-31 12:00:00 28.5 14 Nordeste 30 Nordeste 0 -- -- 31
2019-07-31 11:00:00 26.3 24 Nordeste 35 Nordeste 0 -- -- 35
2019-07-31 10:00:00 24 29 Nordeste 39 Nordeste 0 -- -- 39
2019-07-31 09:00:00 22.2 31 Nordeste 42 Nordeste 0 -- -- 42
2019-07-31 08:00:00 20.3 31 Nordeste 40 Nordeste 0 -- -- 43
2019-07-31 07:00:00 20.1 28 Nordeste 41 Nordeste 0 -- -- 42
2019-07-31 06:00:00 20.5 28 Nordeste 37 Nordeste 0 -- -- 40
2019-07-31 05:00:00 20.7 17 Nordeste 23 Nordeste 0 -- -- 33
2019-07-31 04:00:00 20.5 5 Este 14 Nordeste 0 -- -- 30
2019-07-31 03:00:00 21.6 8 Este 15 Este 0 -- -- 28
2019-07-31 02:00:00 21.8 10 Este 17 Este 0 -- -- 28
2019-07-31 01:00:00 21.4 8 Este 12 Este 0 -- -- 30
2019-07-31 00:00:00 21.2 10 Norte 18 Noroeste 0 -- -- 29
2019-07-30 23:00:00 24.2 11 Noroeste 18 Noroeste 0 -- -- 25
2019-07-30 22:00:00 25.3 8 Noroeste 14 Noroeste 0 -- -- 24
2019-07-30 21:00:00 28.5 10 Noroeste 17 Noroeste 0 -- -- 20
2019-07-30 20:00:00 30.3 8 Noroeste 21 Noroeste 0 -- -- 17
2019-07-30 19:00:00 30.8 11 Noroeste 25 Noroeste 0 -- -- 17
2019-07-30 18:00:00 31.3 11 Norte 22 Norte 0 -- -- 15
2019-07-30 17:00:00 30.6 8 Noroeste 27 Norte 0 -- -- 17
2019-07-30 16:00:00 30.2 12 Norte 26 Noroeste 0 -- -- 20
2019-07-30 15:00:00 29.7 9 Norte 28 Norte 0 -- -- 21
2019-07-30 14:00:00 28.2 9 Norte 26 Nordeste 0 -- -- 23
2019-07-30 13:00:00 26.6 8 Nordeste 30 Nordeste 0 -- -- 27
2019-07-30 12:00:00 24.6 12 Nordeste 25 Norte 0 -- -- 31
2019-07-30 11:00:00 22.4 9 Norte 19 Norte 0 -- -- 36
2019-07-30 10:00:00 19.6 6 Norte 13 Norte 0 -- -- 43
2019-07-30 09:00:00 16.4 5 Este 10 Este 0 -- -- 52
2019-07-30 08:00:00 14.3 7 Este 12 Este 0 -- -- 57
2019-07-30 07:00:00 13.6 9 Sudeste 14 Sudeste 0 -- -- 60
2019-07-30 06:00:00 14 3 Sudeste 9 Sudoeste 0 -- -- 58
2019-07-30 05:00:00 14.6 4 Sudeste 10 Sur 0 -- -- 56
2019-07-30 04:00:00 16.1 4 Sudoeste 15 Noroeste 0 -- -- 52
2019-07-30 03:00:00 17.7 10 Noroeste 22 Noroeste 0 -- -- 48
2019-07-30 02:00:00 18.7 12 Noroeste 30 Noroeste 0 -- -- 43
2019-07-30 01:00:00 19.8 16 Noroeste 31 Noroeste 0 -- -- 39
2019-07-30 00:00:00 21 15 Noroeste 32 Noroeste 0 -- -- 35
2019-07-29 23:00:00 22.6 16 Noroeste 32 Noroeste 0 -- -- 32
2019-07-29 22:00:00 24.3 13 Noroeste 30 Noroeste 0 -- -- 30
2019-07-29 21:00:00 27.4 14 Noroeste 32 Noroeste 0 -- -- 27
2019-07-29 20:00:00 29.2 16 Noroeste 30 Oeste 0 -- -- 28
2019-07-29 19:00:00 30.8 12 Oeste 31 Sur 0 -- -- 30
2019-07-29 18:00:00 31.3 14 Oeste 30 Oeste 0 -- -- 20
2019-07-29 17:00:00 31.5 13 Oeste 32 Sudoeste 0 -- -- 21
2019-07-29 16:00:00 31.6 13 Sudoeste 39 Sudoeste 0 -- -- 22
2019-07-29 15:00:00 30.3 12 Sudoeste 31 Sudoeste 0 -- -- 26
2019-07-29 14:00:00 29.1 12 Sudoeste 31 Sudoeste 0 -- -- 30
2019-07-29 13:00:00 26.9 13 Sudoeste 21 Sudoeste 0 -- -- 31
2019-07-29 12:00:00 24.8 12 Sudoeste 22 Sudoeste 0 -- -- 35
2019-07-29 11:00:00 21.9 8 Sudoeste 17 Sur 0 -- -- 43
2019-07-29 10:00:00 19.2 9 Sur 17 Sudoeste 0 -- -- 51
2019-07-29 09:00:00 16.7 9 Sudoeste 17 Sudoeste 0 -- -- 62
2019-07-29 08:00:00 15.6 7 Sur 15 Sudoeste 0 -- -- 67
2019-07-29 07:00:00 16.2 11 Sudoeste 17 Sudoeste 0 -- -- 67
2019-07-29 06:00:00 17 4 Sur 10 Sudoeste 0 -- -- 65
2019-07-29 05:00:00 18.5 6 Sur 10 Sur 0 -- -- 61
2019-07-29 04:00:00 19.9 7 Sur 12 Sudoeste 0 -- -- 55
2019-07-29 03:00:00 20.5 4 Sur 11 Sudoeste 0 -- -- 50
2019-07-29 02:00:00 21.5 6 Oeste 18 Oeste 0 -- -- 48
2019-07-29 01:00:00 22.5 8 Oeste 23 Sudoeste 0 -- -- 43
2019-07-29 00:00:00 24.4 12 Sur 18 Sur 0 -- -- 41
2019-07-28 23:00:00 25.1 5 Oeste 12 Oeste 0 -- -- 33
2019-07-28 22:00:00 26.5 6 Oeste 13 Oeste 0 -- -- 31
2019-07-28 21:00:00 30.4 7 Oeste 19 Sudoeste 0 -- -- 26
2019-07-28 20:00:00 30.6 10 Sudoeste 21 Sudoeste 0 -- -- 27
2019-07-28 19:00:00 31.3 8 Sudoeste 26 Oeste 0 -- -- 27
2019-07-28 18:00:00 31 9 Sur 25 Sudoeste 0 -- -- 28
2019-07-28 17:00:00 30.8 13 Sudoeste 25 Sudoeste 0 -- -- 29
2019-07-28 16:00:00 31.4 8 Sudoeste 26 Sudoeste 0 -- -- 28
2019-07-28 15:00:00 30.1 6 Noroeste 22 Sudoeste 0 -- -- 31
2019-07-28 14:00:00 29.7 9 Sur 22 Sudoeste 0 -- -- 34
2019-07-28 13:00:00 28 7 Oeste 19 Sur 0 -- -- 37
2019-07-28 12:00:00 26.5 6 Sur 15 Sudoeste 0 -- -- 42
2019-07-28 11:00:00 24.9 4 Este 12 Sudeste 0 -- -- 48
2019-07-28 10:00:00 21.9 5 Sur 17 Este 0 -- -- 56
2019-07-28 09:00:00 21 8 Nordeste 15 Nordeste 0 -- -- 60
2019-07-28 08:00:00 17.1 6 Este 14 Sudeste 0 -- -- 74
2019-07-28 07:00:00 16.2 10 Este 13 Sudeste 0 -- -- 77
2019-07-28 06:00:00 16.3 9 Sudeste 16 Sudeste 0 -- -- 74
2019-07-28 05:00:00 16.6 6 Sudeste 14 Sudeste 0 -- -- 72
2019-07-28 04:00:00 17.2 8 Sudeste 14 Sudeste 0 -- -- 68
2019-07-28 03:00:00 17.8 7 Sur 11 Sur 0 -- -- 66
2019-07-28 02:00:00 18.6 6 Sur 10 Sudoeste 0 -- -- 61
2019-07-28 01:00:00 19.2 6 Sudoeste 15 Sudoeste 0 -- -- 60
2019-07-28 00:00:00 20.3 6 Oeste 19 Oeste 0 -- -- 56
2019-07-27 23:00:00 21.4 9 Oeste 19 Oeste 0 -- -- 53
2019-07-26 12:00:00 -- -- -- -- -- -- -- -- --
2019-07-26 11:00:00 -- -- -- -- -- -- -- -- --
2019-07-26 10:00:00 19.5 10 Sur 20 Sudoeste 0 -- -- 66
2019-07-26 09:00:00 16.8 11 Sudoeste 17 Sur 0 -- -- 76
2019-07-26 08:00:00 16.1 10 Sudoeste 18 Sudoeste 0 -- -- 78
2019-07-26 07:00:00 16.6 10 Sudoeste 24 Sudoeste 0 -- -- 79
2019-07-26 06:00:00 18.3 12 Sudoeste 23 Sudoeste 0 -- -- 76
2019-07-26 05:00:00 19.7 12 Sudoeste 19 Sudoeste 0 -- -- 73
2019-07-26 04:00:00 20.7 10 Sudoeste 21 Sudoeste 0 -- -- 71
2019-07-26 03:00:00 21.8 8 Sudoeste 19 Sudoeste 0 -- -- 67
2019-07-26 02:00:00 22.7 8 Sudoeste 23 Oeste 0 -- -- 62
2019-07-26 01:00:00 23.4 12 Oeste 26 Oeste 0 -- -- 60
2019-07-26 00:00:00 24.9 12 Oeste 30 Oeste 0 -- -- 54
2019-07-25 23:00:00 26.9 12 Oeste 29 Oeste 0 -- -- 41
2019-07-25 22:00:00 27.4 8 Oeste 21 Sudoeste 0 -- -- 24
2019-07-25 21:00:00 30.1 10 Sudoeste 31 Sudoeste 0 -- -- 22
2019-07-25 20:00:00 33.4 15 Sudoeste 31 Oeste 0 -- -- 23
2019-07-25 19:00:00 34 12 Oeste 33 Sudoeste 0 -- -- 23
2019-07-25 18:00:00 34.8 13 Oeste 33 Sudoeste 0 -- -- 24
2019-07-25 17:00:00 34.8 16 Sudoeste 35 Sudoeste 0 -- -- 19
2019-07-25 16:00:00 34.7 18 Sudoeste 39 Sudoeste 0 -- -- 21
2019-07-25 15:00:00 34.3 12 Sudoeste 34 Sudoeste 0 -- -- 22
2019-07-25 14:00:00 33.3 15 Sudoeste 35 Sudoeste 0 -- -- 25
2019-07-25 13:00:00 31.5 13 Sudoeste 28 Sudoeste 0 -- -- 29
2019-07-25 12:00:00 30.4 13 Sudoeste 22 Sudoeste 0 -- -- 29
2019-07-25 11:00:00 28.8 12 Sudoeste 21 Sudoeste 0 -- -- 31
2019-07-25 10:00:00 26 5 Sudoeste 11 Sudoeste 0 -- -- 36
2019-07-25 09:00:00 24.5 5 Sudeste 12 Sudeste 0 -- -- 39
2019-07-25 08:00:00 23.1 8 Sudeste 11 Sudeste 0 -- -- 43
2019-07-25 07:00:00 22.5 9 Sudeste 12 Sudeste 0 -- -- 44
2019-07-25 06:00:00 22.8 8 Sudeste 12 Sudeste 0 -- -- 43
2019-07-25 05:00:00 22.9 9 Sudeste 14 Sudeste 0 -- -- 43
2019-07-25 04:00:00 23.6 6 Sudeste 9 Sudeste 0 -- -- 42
2019-07-25 03:00:00 24.3 4 Sur 10 Sudoeste 0 -- -- 40
2019-07-25 02:00:00 25.5 5 Sudoeste 12 Oeste 0 -- -- 37
2019-07-25 01:00:00 27.2 6 Oeste 19 Oeste 0 -- -- 32
2019-07-25 00:00:00 28.7 7 Oeste 21 Oeste 0 -- -- 30
2019-07-24 23:00:00 30.1 7 Oeste 14 Oeste 0 -- -- 29
2019-07-24 22:00:00 31.4 6 Sudoeste 14 Sudoeste 0 -- -- 28
2019-07-24 21:00:00 34.9 11 Sudoeste 32 Sur 0 -- -- 24
2019-07-24 20:00:00 35.9 20 Sudoeste 36 Sudoeste 0 -- -- 23
2019-07-24 19:00:00 36.5 9 Sudoeste 33 Sur 0 -- -- 21
2019-07-24 18:00:00 37.2 21 Sur 34 Sudoeste 0 -- -- 21
2019-07-24 17:00:00 37.2 14 Sur 30 Sur 0 -- -- 21
2019-07-24 16:00:00 35.9 15 Sur 36 Sur 0 -- -- 23
2019-07-24 15:00:00 36.9 20 Sur 33 Sur 0 -- -- 22
2019-07-24 14:00:00 35.8 12 Sur 30 Sudoeste 0 -- -- 25
2019-07-24 13:00:00 34.6 6 Sudeste 14 Sur 0 -- -- 29
2019-07-24 12:00:00 32.7 8 Oeste 16 Noroeste 0 -- -- 33
2019-07-24 11:00:00 31.4 5 Sudoeste 10 Sudoeste 0 -- -- 33
2019-07-24 10:00:00 29.5 5 Sur 10 Sudeste 0 -- -- 37
2019-07-24 09:00:00 27.6 7 Este 15 Este 0 -- -- 40
2019-07-24 08:00:00 24.3 10 Este 14 Nordeste 0 -- -- 46
2019-07-24 07:00:00 22.8 12 Nordeste 14 Nordeste 0 -- -- 51
2019-07-24 06:00:00 22.3 8 Norte 11 Norte 0 -- -- 52
2019-07-24 05:00:00 23.4 4 Sudeste 10 Nordeste 0 -- -- 49
2019-07-24 04:00:00 25.7 7 Sudeste 17 Sudeste 0 -- -- 43
2019-07-24 03:00:00 25.9 12 Sudeste 26 Este 0 -- -- 44
2019-07-24 02:00:00 25.9 20 Este 31 Nordeste 0 -- -- 42
2019-07-24 01:00:00 26.6 21 Nordeste 29 Nordeste 0 -- -- 40
2019-07-24 00:00:00 27 18 Nordeste 31 Nordeste 0 -- -- 42
2019-07-23 23:00:00 28.8 16 Nordeste 24 Nordeste 0 -- -- 42
2019-07-23 22:00:00 30.8 4 Oeste 19 Sudoeste 0 -- -- 31
2019-07-23 21:00:00 34.2 9 Sudoeste 29 Sudoeste 0 -- -- 27
2019-07-23 20:00:00 35.9 8 Sudoeste 31 Sudoeste 0 -- -- 26
2019-07-23 19:00:00 36.8 24 Sudoeste 38 Sudoeste 0 -- -- 23
2019-07-23 18:00:00 36.5 14 Sur 33 Sudoeste 0 -- -- 25
2019-07-23 17:00:00 37.3 15 Sur 33 Sur 0 -- -- 26
2019-07-23 16:00:00 36.1 6 Oeste 22 Sudoeste 0 -- -- 27
2019-07-23 15:00:00 35.5 11 Sur 23 Sudoeste 0 -- -- 28
2019-07-23 14:00:00 33.3 5 Noroeste 22 Nordeste 0 -- -- 30
2019-07-23 13:00:00 31.7 8 Nordeste 29 Nordeste 0 -- -- 33
2019-07-23 12:00:00 29.1 21 Nordeste 38 Este 0 -- -- 42
2019-07-23 11:00:00 28.3 9 Este 36 Nordeste 0 -- -- 38
2019-07-23 10:00:00 25.2 22 Este 35 Este 0 -- -- 48
2019-07-23 09:00:00 26.4 5 Sur 33 Este 0 -- -- 42
2019-07-23 08:00:00 25.4 24 Nordeste 45 Nordeste 0 -- -- 41
2019-07-23 07:00:00 24.2 36 Nordeste 54 Nordeste 0 -- -- 46
2019-07-23 06:00:00 23.7 36 Nordeste 55 Nordeste 0 -- -- 50
2019-07-23 05:00:00 23.2 31 Nordeste 43 Nordeste 0.2 -- -- 55
2019-07-23 04:00:00 22.3 24 Este 44 Nordeste 2.2 -- -- 65
2019-07-23 03:00:00 27.7 14 Nordeste 48 Sudeste 0 -- -- 41
2019-07-23 02:00:00 28.6 29 Este 46 Este 0 -- -- 35
2019-07-23 01:00:00 29.6 12 Nordeste 33 Nordeste 0 -- -- 30
2019-07-23 00:00:00 29.1 27 Nordeste 43 Nordeste 0 -- -- 36
2019-07-22 23:00:00 29.3 32 Nordeste 46 Nordeste 0 -- -- 36
2019-07-22 22:00:00 33.2 17 Nordeste 28 Nordeste 0 -- -- 30
2019-07-22 21:00:00 34.3 12 Norte 24 Nordeste 0 -- -- 28
2019-07-22 20:00:00 37.1 4 Norte 20 Norte 0 -- -- 24
2019-07-22 19:00:00 37 10 Nordeste 22 Nordeste 0 -- -- 23
2019-07-22 18:00:00 38.9 10 Nordeste 29 Nordeste 0 -- -- 22
2019-07-22 17:00:00 38.4 18 Nordeste 39 Nordeste 0 -- -- 22
2019-07-22 16:00:00 38.2 23 Nordeste 35 Nordeste 0 -- -- 22
2019-07-22 15:00:00 37.4 16 Nordeste 39 Nordeste 0 -- -- 23
2019-07-22 14:00:00 35.6 19 Nordeste 39 Nordeste 0 -- -- 25
2019-07-22 13:00:00 33.8 22 Nordeste 39 Nordeste 0 -- -- 27
2019-07-22 12:00:00 32 22 Nordeste 35 Nordeste 0 -- -- 28
2019-07-22 11:00:00 30.6 24 Nordeste 35 Nordeste 0 -- -- 31
2019-07-22 10:00:00 28.5 22 Nordeste 33 Nordeste 0 -- -- 34
2019-07-22 09:00:00 27.5 24 Nordeste 35 Nordeste 0 -- -- 35
2019-07-22 08:00:00 25.7 28 Nordeste 36 Nordeste 0 -- -- 38
2019-07-22 07:00:00 25.3 25 Nordeste 32 Nordeste 0 -- -- 40
2019-07-22 06:00:00 24.6 13 Nordeste 17 Nordeste 0 -- -- 39
2019-07-22 05:00:00 24.4 6 Nordeste 12 Sudeste 0 -- -- 37
2019-07-22 04:00:00 24.7 5 Sudeste 8 Nordeste 0 -- -- 35
2019-07-22 03:00:00 27.2 5 Sudeste 13 Este 0 -- -- 28
2019-07-22 02:00:00 27.4 2 Sudoeste 14 Noroeste 0 -- -- 33
2019-07-22 01:00:00 29.1 9 Noroeste 18 Noroeste 0 -- -- 23
2019-07-22 00:00:00 29.8 9 Norte 13 Norte 0 -- -- 21
2019-07-21 23:00:00 29.8 11 Norte 15 Noroeste 0 -- -- 24
2019-07-21 22:00:00 32.9 9 Noroeste 14 Noroeste 0 -- -- 21
2019-07-21 21:00:00 35.4 4 Oeste 16 Sudoeste 0 -- -- 22
2019-07-21 20:00:00 37.7 7 Oeste 28 Sudoeste 0 -- -- 20
2019-07-21 19:00:00 38.4 8 Sudoeste 28 Sudoeste 0 -- -- 20
2019-07-21 18:00:00 38.4 10 Sudoeste 31 Sudoeste 0 -- -- 20
2019-07-21 17:00:00 38.2 13 Sudoeste 27 Sudoeste 0 -- -- 20
2019-07-21 16:00:00 38.3 8 Sur 28 Sudoeste 0 -- -- 21
2019-07-21 15:00:00 37.4 10 Sudoeste 26 Sudoeste 0 -- -- 21
2019-07-21 14:00:00 36.7 10 Sudoeste 23 Sudoeste 0 -- -- 22
2019-07-21 13:00:00 35.5 5 Oeste 17 Sudoeste 0 -- -- 24
2019-07-21 12:00:00 33.4 8 Sudoeste 13 Sur 0 -- -- 27
2019-07-21 11:00:00 30 7 Sur 10 Sur 0 -- -- 34
2019-07-21 10:00:00 26.4 5 Sudoeste 7 Sur 0 -- -- 43
2019-07-21 09:00:00 24.8 3 Norte 9 Nordeste 0 -- -- 50
2019-07-21 08:00:00 22.4 5 Norte 17 Nordeste 0 -- -- 56
2019-07-21 07:00:00 21.2 6 Sudeste 8 Sudeste 0 -- -- 59
2019-07-21 06:00:00 21.6 7 Sudeste 14 Sudeste 0 -- -- 56
2019-07-21 05:00:00 22.3 8 Sudeste 13 Sudeste 0 -- -- 51
2019-07-21 04:00:00 23.3 7 Sur 12 Sudeste 0 -- -- 47
2019-07-21 03:00:00 24.2 9 Sudeste 13 Sudeste 0 -- -- 42
2019-07-21 02:00:00 25.4 7 Sudeste 10 Sudeste 0 -- -- 34
2019-07-21 01:00:00 26.9 7 Sudeste 14 Oeste 0 -- -- 28
2019-07-21 00:00:00 28.8 9 Oeste 22 Oeste 0 -- -- 29